Time;durP1;ratioP1;P1;durP2;ratioP2;P2;SDS_P1;SDS_P2;PMS_P1;PMS_P2;Temp;Humidity;BMP_temperature;BMP_pressure;BME280_temperature;BME280_humidity;BME280_pressure;Samples;Min_cycle;Max_cycle;Signal;HPM_P1;HPM_P2
2022/04/22 00:00:14;;;;;;;4.22;3.78;;;8.70;83.80;;;;;;4200177;28;20053;-83
2022/04/22 00:02:16;;;;;;;4.68;4.28;;;8.70;84.00;;;;;;4214033;28;20053;-85
2022/04/22 00:04:17;;;;;;;4.28;3.88;;;8.70;84.00;;;;;;4198390;28;20072;-84
2022/04/22 00:06:20;;;;;;;4.65;4.35;;;8.70;83.90;;;;;;4195478;28;20080;-84
2022/04/22 00:08:22;;;;;;;5.00;4.50;;;8.70;84.10;;;;;;4175917;28;20096;-84
2022/04/22 00:10:24;;;;;;;4.82;3.72;;;8.70;84.20;;;;;;4176127;28;20054;-83
2022/04/22 00:12:26;;;;;;;4.45;4.15;;;8.70;84.30;;;;;;4175790;28;20089;-82
2022/04/22 00:14:28;;;;;;;4.35;4.05;;;8.60;84.40;;;;;;4174141;28;20045;-84
2022/04/22 00:16:31;;;;;;;3.67;3.38;;;8.60;84.50;;;;;;4174090;28;20076;-85
2022/04/22 00:18:34;;;;;;;4.43;4.03;;;8.60;84.60;;;;;;4174916;28;20042;-85
2022/04/22 00:20:36;;;;;;;4.43;4.03;;;8.60;84.60;;;;;;4175304;28;20050;-83
2022/04/22 00:22:42;;;;;;;4.53;4.10;;;8.60;84.70;;;;;;4183099;28;20821;-84
2022/04/22 00:24:43;;;;;;;4.45;4.05;;;8.50;85.00;;;;;;4201863;28;20868;-83
2022/04/22 00:26:45;;;;;;;4.97;4.57;;;8.50;85.20;;;;;;4174934;28;20058;-83
2022/04/22 00:28:47;;;;;;;6.03;4.50;;;8.50;85.50;;;;;;4191873;28;20065;-84
2022/04/22 00:30:49;;;;;;;4.40;4.00;;;8.40;85.70;;;;;;4191482;28;20061;-83
2022/04/22 00:32:51;;;;;;;5.22;4.72;;;8.40;85.60;;;;;;4189313;28;20049;-83
2022/04/22 00:34:52;;;;;;;4.68;4.15;;;8.40;85.60;;;;;;4189768;28;20065;-82
2022/04/22 00:36:54;;;;;;;5.50;5.00;;;8.50;85.80;;;;;;4190095;28;20080;-84
2022/04/22 00:38:56;;;;;;;5.95;4.35;;;8.50;85.80;;;;;;4187140;28;20868;-84
2022/04/22 00:40:59;;;;;;;6.07;4.78;;;8.40;86.00;;;;;;4201567;28;20864;-84
2022/04/22 00:43:23;;;;;;;5.85;4.35;;;8.40;86.10;;;;;;4197365;28;20824;-82
2022/04/22 00:45:26;;;;;;;8.20;5.25;;;8.40;86.30;;;;;;4177018;28;20156;-84
2022/04/22 00:47:28;;;;;;;5.72;5.03;;;8.40;86.40;;;;;;4186882;28;20065;-84
2022/04/22 00:49:30;;;;;;;5.03;4.53;;;8.30;86.60;;;;;;4191272;28;20061;-84
2022/04/22 00:51:32;;;;;;;5.68;4.60;;;8.30;86.70;;;;;;4199799;28;20108;-83
2022/04/22 00:53:35;;;;;;;6.85;5.00;;;8.30;87.00;;;;;;4193763;28;20048;-85
2022/04/22 00:55:42;;;;;;;5.88;5.35;;;8.20;87.30;;;;;;4193007;28;20058;-83
2022/04/22 00:57:43;;;;;;;8.13;5.47;;;8.20;87.60;;;;;;4196380;28;20050;-84
2022/04/22 00:59:46;;;;;;;7.30;5.18;;;8.20;87.70;;;;;;4189750;28;20064;-82
2022/04/22 01:01:50;;;;;;;5.07;4.57;;;8.20;87.90;;;;;;4190614;28;20053;-84
2022/04/22 01:10:54;;;;;;;5.07;4.63;;;8.10;88.60;;;;;;4206496;28;20036;-82
2022/04/22 01:12:55;;;;;;;7.13;5.22;;;8.10;88.20;;;;;;4186874;28;20045;-84
2022/04/22 01:14:58;;;;;;;6.03;5.43;;;8.10;88.40;;;;;;4200762;28;20033;-86
2022/04/22 01:17:01;;;;;;;6.78;5.35;;;8.10;88.70;;;;;;4202207;28;20053;-84
2022/04/22 01:19:02;;;;;;;8.95;5.75;;;8.00;89.00;;;;;;4196460;28;20057;-84
2022/04/22 01:21:04;;;;;;;8.90;5.50;;;8.00;89.30;;;;;;4213673;28;20045;-84
2022/04/22 01:23:06;;;;;;;6.03;5.50;;;8.00;89.40;;;;;;4195609;28;20048;-84
2022/04/22 01:25:08;;;;;;;5.95;5.45;;;7.90;89.60;;;;;;4199118;28;21472;-86
2022/04/22 01:27:10;;;;;;;7.50;5.80;;;7.90;90.00;;;;;;4193226;28;20061;-85
2022/04/22 01:29:14;;;;;;;6.63;6.03;;;7.90;90.00;;;;;;4191206;28;20167;-83
2022/04/22 01:31:15;;;;;;;5.90;5.32;;;7.90;90.10;;;;;;4192157;28;20115;-83
2022/04/22 01:33:17;;;;;;;7.40;6.38;;;7.90;90.20;;;;;;4191340;28;20068;-83
2022/04/22 01:35:19;;;;;;;6.53;5.85;;;7.90;90.20;;;;;;4216348;28;20041;-83
2022/04/22 01:37:21;;;;;;;9.30;6.60;;;7.80;90.30;;;;;;4195041;28;20053;-84
2022/04/22 01:39:23;;;;;;;7.03;6.32;;;7.80;90.50;;;;;;4225045;28;20044;-84
2022/04/22 01:41:27;;;;;;;8.15;6.95;;;7.80;90.50;;;;;;4209598;28;20061;-83
2022/04/22 01:43:29;;;;;;;7.55;6.85;;;7.90;90.70;;;;;;4209786;28;20075;-83
2022/04/22 01:45:31;;;;;;;7.75;6.82;;;7.80;90.80;;;;;;4212740;28;20059;-83
2022/04/22 01:47:33;;;;;;;6.45;5.85;;;7.80;90.80;;;;;;4202847;28;20053;-83
2022/04/22 01:49:35;;;;;;;8.52;7.57;;;7.70;90.90;;;;;;4199615;28;20069;-84
2022/04/22 01:51:37;;;;;;;7.93;6.85;;;7.70;91.10;;;;;;4192059;28;20041;-85
2022/04/22 01:53:39;;;;;;;7.63;6.70;;;7.80;91.10;;;;;;4190277;28;20042;-83
2022/04/22 01:55:41;;;;;;;10.32;7.07;;;7.70;91.20;;;;;;4190355;28;20076;-82
2022/04/22 01:57:43;;;;;;;6.50;5.80;;;7.60;91.30;;;;;;4189288;28;20045;-83
2022/04/22 01:59:46;;;;;;;8.75;6.97;;;7.60;91.30;;;;;;4188839;28;20057;-85
2022/04/22 02:01:48;;;;;;;7.57;6.82;;;7.60;91.40;;;;;;4189367;28;20049;-82
2022/04/22 02:03:50;;;;;;;7.85;6.30;;;7.60;91.40;;;;;;4188631;28;20863;-83
2022/04/22 02:05:52;;;;;;;6.07;5.47;;;7.60;91.50;;;;;;4188681;28;20875;-83
2022/04/22 02:07:54;;;;;;;8.95;6.35;;;7.60;91.50;;;;;;4187207;28;20057;-84
2022/04/22 02:09:56;;;;;;;8.07;7.25;;;7.60;91.50;;;;;;4187186;28;20058;-83
2022/04/22 02:11:58;;;;;;;8.15;5.75;;;7.60;91.50;;;;;;4187005;28;20080;-83
2022/04/22 02:14:00;;;;;;;9.38;6.55;;;7.60;91.50;;;;;;4188369;28;20058;-83
2022/04/22 02:16:05;;;;;;;9.68;7.18;;;7.60;91.60;;;;;;4186671;28;20060;-83
2022/04/22 02:18:07;;;;;;;7.93;6.47;;;7.50;91.80;;;;;;4186298;28;20892;-83
2022/04/22 02:20:10;;;;;;;7.32;6.63;;;7.50;91.90;;;;;;4186174;28;20057;-82
2022/04/22 02:22:14;;;;;;;10.05;6.22;;;7.50;92.10;;;;;;4185486;28;20077;-82
2022/04/22 02:24:15;;;;;;;8.07;6.82;;;7.50;92.00;;;;;;4186008;28;20041;-83
2022/04/22 02:26:17;;;;;;;9.05;6.70;;;7.40;92.00;;;;;;4193179;28;20062;-83
2022/04/22 02:28:32;;;;;;;8.13;6.88;;;7.50;91.90;;;;;;4195326;28;20049;-84
2022/04/22 02:30:34;;;;;;;8.30;7.00;;;7.40;91.90;;;;;;4187108;28;20053;-84
2022/04/22 02:32:36;;;;;;;9.35;6.45;;;7.40;92.10;;;;;;4186652;28;20057;-83
2022/04/22 02:34:37;;;;;;;7.68;6.72;;;7.40;92.30;;;;;;4187928;28;20052;-83
2022/04/22 02:36:42;;;;;;;7.88;7.07;;;7.30;92.50;;;;;;4196036;28;20061;-83
2022/04/22 02:38:44;;;;;;;7.72;6.65;;;7.30;92.60;;;;;;4215343;28;20061;-84
2022/04/22 02:45:27;;;;;;;11.65;8.30;;;7.20;92.90;;;;;;4211050;28;20104;-82
2022/04/22 02:47:29;;;;;;;9.55;7.22;;;7.20;93.00;;;;;;4195704;28;20050;-82
2022/04/22 02:49:31;;;;;;;10.77;7.70;;;7.10;93.40;;;;;;4194527;28;20127;-84
2022/04/22 02:51:33;;;;;;;9.32;8.05;;;7.10;93.60;;;;;;4194359;28;20061;-86
2022/04/22 02:53:34;;;;;;;12.80;8.75;;;7.10;93.80;;;;;;4191870;28;20065;-83
2022/04/22 02:55:40;;;;;;;12.05;8.60;;;7.00;93.90;;;;;;4190349;28;20060;-83
2022/04/22 02:57:44;;;;;;;11.27;8.65;;;7.00;94.00;;;;;;4190861;28;20093;-83
2022/04/22 02:59:47;;;;;;;10.60;8.57;;;7.00;94.10;;;;;;4199093;28;20059;-88
2022/04/22 03:01:49;;;;;;;13.02;9.05;;;7.00;94.10;;;;;;4201092;28;20346;-84
2022/04/22 03:03:50;;;;;;;11.30;9.02;;;7.00;94.50;;;;;;4191860;28;20046;-83
2022/04/22 03:05:52;;;;;;;13.73;9.50;;;7.00;94.60;;;;;;4189812;28;20172;-84
2022/04/22 03:07:54;;;;;;;10.65;8.50;;;6.90;94.40;;;;;;4198041;28;20049;-84
2022/04/22 03:09:56;;;;;;;10.23;8.57;;;6.90;94.70;;;;;;4186462;23;20136;-77
2022/04/22 03:11:59;;;;;;;10.30;9.13;;;6.90;94.80;;;;;;4180386;28;20097;-77
2022/04/22 03:14:03;;;;;;;11.75;8.60;;;6.90;94.70;;;;;;4182568;28;20929;-76
2022/04/22 03:16:05;;;;;;;12.43;9.30;;;6.90;94.80;;;;;;4180011;28;20153;-77
2022/04/22 03:18:07;;;;;;;12.13;9.32;;;6.90;94.90;;;;;;4182171;28;20156;-76
2022/04/22 03:20:09;;;;;;;10.57;9.15;;;6.90;95.00;;;;;;4180878;28;20064;-76
2022/04/22 03:22:11;;;;;;;13.07;9.18;;;6.90;95.00;;;;;;4179291;28;20097;-76
2022/04/22 03:24:13;;;;;;;11.73;9.32;;;6.90;95.10;;;;;;4180953;28;20108;-77
2022/04/22 03:26:15;;;;;;;11.40;9.13;;;6.80;95.40;;;;;;4188127;28;20063;-78
2022/04/22 03:28:17;;;;;;;9.25;8.25;;;6.80;95.80;;;;;;4166532;28;20140;-78
2022/04/22 03:30:19;;;;;;;10.57;9.32;;;6.70;95.70;;;;;;4184333;28;20092;-79
2022/04/22 03:32:20;;;;;;;9.77;8.70;;;6.70;95.70;;;;;;4180134;28;20088;-78
2022/04/22 03:34:22;;;;;;;14.55;10.10;;;6.70;95.90;;;;;;4168488;28;20141;-78
2022/04/22 03:36:24;;;;;;;10.18;8.38;;;6.70;95.70;;;;;;4185098;28;20061;-78
2022/04/22 03:38:27;;;;;;;10.55;8.32;;;6.70;95.80;;;;;;4182456;28;20161;-78
2022/04/22 03:40:29;;;;;;;14.90;8.70;;;6.60;95.60;;;;;;4185503;28;20062;-80
2022/04/22 03:42:32;;;;;;;13.15;8.65;;;6.60;95.60;;;;;;4194477;28;20052;-74
2022/04/22 03:44:33;;;;;;;13.02;9.48;;;6.60;95.60;;;;;;4203901;28;20061;-75
2022/04/22 03:46:36;;;;;;;11.75;9.50;;;6.60;95.80;;;;;;4192997;28;20049;-79
2022/04/22 03:48:38;;;;;;;12.88;9.52;;;6.50;96.20;;;;;;4187690;28;20045;-79
2022/04/22 03:50:40;;;;;;;11.70;9.55;;;6.50;96.10;;;;;;4189965;28;20786;-79
2022/04/22 03:52:42;;;;;;;12.43;9.60;;;6.40;97.00;;;;;;4185137;28;20087;-80
2022/04/22 03:54:44;;;;;;;13.40;10.13;;;6.40;97.50;;;;;;4185605;28;20160;-79
2022/04/22 03:59:05;;;;;;;13.82;10.95;;;6.20;97.30;;;;;;4183916;28;20084;-77
2022/04/22 04:01:07;;;;;;;12.88;10.63;;;6.20;97.50;;;;;;4181556;28;20204;-76
2022/04/22 04:03:11;;;;;;;15.90;10.65;;;6.30;97.60;;;;;;4183677;28;20093;-77
2022/04/22 04:05:12;;;;;;;13.77;10.60;;;6.20;97.50;;;;;;4185565;28;20062;-78
2022/04/22 04:07:14;;;;;;;13.90;10.13;;;6.20;97.50;;;;;;4184297;28;20179;-77
2022/04/22 04:16:18;;;;;;;12.80;10.05;;;6.10;98.50;;;;;;4191588;28;20057;-75
2022/04/22 04:18:20;;;;;;;16.58;11.82;;;6.10;98.50;;;;;;4191513;28;20056;-75
2022/04/22 04:25:03;;;;;;;16.80;12.38;;;6.00;98.40;;;;;;4181486;28;20096;-76
2022/04/22 04:27:07;;;;;;;15.93;10.35;;;6.00;98.70;;;;;;4187396;28;20061;-77
2022/04/22 04:29:09;;;;;;;17.98;11.77;;;6.10;98.70;;;;;;4185334;28;20108;-77
2022/04/22 04:31:11;;;;;;;13.20;10.80;;;6.10;98.30;;;;;;4183297;28;20057;-77
2022/04/22 04:33:13;;;;;;;16.50;11.38;;;6.20;98.20;;;;;;4184613;28;20056;-76
2022/04/22 04:35:15;;;;;;;17.05;12.32;;;6.10;99.00;;;;;;4187257;28;20096;-78
2022/04/22 04:37:17;;;;;;;15.23;11.75;;;6.10;98.90;;;;;;4184938;28;20093;-78
2022/04/22 04:39:18;;;;;;;14.98;10.88;;;6.10;98.80;;;;;;4183720;28;20101;-78
2022/04/22 04:41:20;;;;;;;13.30;11.77;;;6.20;98.40;;;;;;4184690;28;20180;-77
2022/04/22 04:43:22;;;;;;;17.50;12.10;;;6.30;97.80;;;;;;4183815;28;20100;-77
2022/04/22 04:45:24;;;;;;;16.67;12.30;;;6.30;97.60;;;;;;4184314;28;20884;-77
2022/04/22 04:47:26;;;;;;;18.70;12.60;;;6.30;97.60;;;;;;4182023;28;20104;-78
2022/04/22 04:49:28;;;;;;;21.15;13.95;;;6.30;97.80;;;;;;4184079;28;20061;-76
2022/04/22 04:51:30;;;;;;;16.83;12.15;;;6.40;97.90;;;;;;4186402;28;20123;-77
2022/04/22 04:53:31;;;;;;;15.18;11.90;;;6.40;97.90;;;;;;4182607;28;20101;-78
2022/04/22 04:55:33;;;;;;;18.58;13.02;;;6.40;98.10;;;;;;4182556;28;20080;-77
2022/04/22 04:57:35;;;;;;;16.58;11.90;;;6.50;98.10;;;;;;4183071;28;20095;-77
2022/04/22 04:59:37;;;;;;;18.77;13.50;;;6.50;97.80;;;;;;4182149;28;20987;-78
2022/04/22 05:01:39;;;;;;;17.63;12.10;;;6.50;98.00;;;;;;4183264;28;20097;-77
2022/04/22 05:03:40;;;;;;;17.10;12.85;;;6.60;97.70;;;;;;4193921;28;20061;-78
2022/04/22 05:05:43;;;;;;;19.75;13.23;;;6.70;97.40;;;;;;4184785;28;20269;-77
2022/04/22 05:07:53;;;;;;;20.77;14.18;;;6.70;97.70;;;;;;4183246;28;20860;-78
2022/04/22 05:09:55;;;;;;;23.13;14.43;;;6.80;97.50;;;;;;4182933;28;20851;-76
2022/04/22 05:11:57;;;;;;;20.63;13.30;;;6.80;97.20;;;;;;4184998;28;20119;-78
2022/04/22 05:13:58;;;;;;;18.05;13.27;;;6.90;97.40;;;;;;4183199;28;20123;-77
2022/04/22 05:16:00;;;;;;;19.88;13.98;;;6.90;97.30;;;;;;4183219;28;20061;-77
2022/04/22 05:18:02;;;;;;;18.30;13.18;;;7.00;97.00;;;;;;4184184;28;20057;-76
2022/04/22 05:20:05;;;;;;;19.52;12.98;;;7.10;96.40;;;;;;4183996;28;20092;-76
2022/04/22 05:22:06;;;;;;;18.30;13.23;;;7.30;95.90;;;;;;4174111;28;20050;-75
2022/04/22 05:24:08;;;;;;;21.00;14.85;;;7.30;95.50;;;;;;4200463;28;20049;-77
2022/04/22 05:26:10;;;;;;;20.95;13.73;;;7.50;95.10;;;;;;4186279;28;20061;-77
2022/04/22 05:28:12;;;;;;;17.67;12.38;;;7.50;94.90;;;;;;4189180;28;20907;-77
2022/04/22 05:32:38;;;;;;;18.48;13.38;;;7.70;94.30;;;;;;4185311;28;20068;-77
2022/04/22 05:34:40;;;;;;;19.15;12.52;;;7.80;94.10;;;;;;4185314;28;20097;-78
2022/04/22 05:36:50;;;;;;;20.13;13.47;;;7.90;93.90;;;;;;4184563;28;20057;-77
2022/04/22 05:38:52;;;;;;;18.58;14.25;;;8.00;93.60;;;;;;4183731;28;20156;-77
2022/04/22 05:40:55;;;;;;;18.48;13.85;;;8.20;93.20;;;;;;4180904;28;20067;-76
2022/04/22 05:42:57;;;;;;;20.80;13.93;;;8.30;92.80;;;;;;4183822;28;20813;-77
2022/04/22 05:44:59;;;;;;;23.05;14.68;;;8.30;92.60;;;;;;4182825;28;20121;-77
2022/04/22 05:47:01;;;;;;;23.20;15.45;;;8.20;92.70;;;;;;4183061;28;20681;-77
2022/04/22 05:49:03;;;;;;;21.98;15.15;;;8.20;92.80;;;;;;4186500;28;20131;-78
2022/04/22 05:51:05;;;;;;;19.33;14.18;;;8.30;92.90;;;;;;4184431;28;20161;-78
2022/04/22 05:53:06;;;;;;;21.88;14.70;;;8.40;92.60;;;;;;4189200;28;20084;-77
2022/04/22 05:55:13;;;;;;;25.05;15.70;;;8.40;92.50;;;;;;4188095;28;20735;-78
2022/04/22 05:57:14;;;;;;;21.02;14.68;;;8.30;92.70;;;;;;4184016;28;20100;-77
2022/04/22 05:59:16;;;;;;;19.35;14.35;;;8.40;93.00;;;;;;4185250;28;20878;-78
2022/04/22 06:01:18;;;;;;;21.80;15.60;;;8.50;92.80;;;;;;4184659;28;20124;-78
2022/04/22 06:03:19;;;;;;;19.98;14.52;;;8.50;92.60;;;;;;4183243;28;20059;-77
2022/04/22 06:05:23;;;;;;;22.33;16.10;;;8.50;92.70;;;;;;4183888;28;20904;-76
2022/04/22 06:07:24;;;;;;;23.33;14.75;;;8.60;92.50;;;;;;4188731;28;20788;-78
2022/04/22 06:11:46;;;;;;;21.48;16.33;;;8.70;92.00;;;;;;4181714;28;20066;-77
2022/04/22 06:13:48;;;;;;;25.17;15.82;;;8.60;92.20;;;;;;4184446;28;20107;-78
2022/04/22 06:15:52;;;;;;;24.25;15.27;;;8.60;92.30;;;;;;4185143;28;20085;-76
2022/04/22 06:17:55;;;;;;;19.85;15.38;;;8.70;92.30;;;;;;4188530;28;20116;-78
2022/04/22 06:19:58;;;;;;;22.70;15.70;;;8.70;92.20;;;;;;4186606;28;20837;-78
2022/04/22 06:22:00;;;;;;;21.77;16.33;;;8.70;92.10;;;;;;4186342;28;20053;-79
2022/04/22 06:24:03;;;;;;;25.10;16.48;;;8.60;92.00;;;;;;4188348;28;20046;-79
2022/04/22 06:26:05;;;;;;;23.45;17.73;;;8.50;92.50;;;;;;4185070;28;20064;-79
2022/04/22 06:28:07;;;;;;;26.10;18.00;;;8.50;92.60;;;;;;4182997;28;20045;-80
2022/04/22 06:30:27;;;;;;;26.30;17.90;;;8.60;93.00;;;;;;4182695;28;20041;-78
2022/04/22 06:32:29;;;;;;;27.98;16.98;;;8.50;92.30;;;;;;4180278;28;20057;-79
2022/04/22 06:34:31;;;;;;;23.88;16.48;;;8.70;92.40;;;;;;4182972;28;20064;-79
2022/04/22 06:36:33;;;;;;;32.42;16.98;;;8.80;92.30;;;;;;4183775;28;20057;-77
2022/04/22 06:38:36;;;;;;;26.42;17.67;;;8.80;92.00;;;;;;4187394;28;20168;-78
2022/04/22 06:47:40;;;;;;;22.65;17.08;;;8.80;91.40;;;;;;4184483;28;20856;-79
2022/04/22 06:49:43;;;;;;;26.17;17.52;;;8.90;91.60;;;;;;4182497;28;20037;-79
2022/04/22 06:51:45;;;;;;;27.75;18.23;;;9.00;91.30;;;;;;4182053;28;20057;-79
2022/04/22 06:53:47;;;;;;;25.55;16.92;;;9.10;91.30;;;;;;4185514;28;20097;-79
2022/04/22 06:55:50;;;;;;;27.20;18.75;;;9.30;91.10;;;;;;4187190;28;20819;-78
2022/04/22 06:57:56;;;;;;;27.92;19.17;;;9.30;90.70;;;;;;4187635;28;20057;-78
2022/04/22 06:59:59;;;;;;;22.58;16.95;;;9.20;90.70;;;;;;4196917;28;20049;-77
2022/04/22 07:02:01;;;;;;;25.00;18.00;;;9.00;91.00;;;;;;4191656;28;20107;-77
2022/04/22 07:04:03;;;;;;;26.20;17.40;;;9.00;91.10;;;;;;4187405;28;20041;-77
2022/04/22 07:06:05;;;;;;;26.48;18.52;;;9.10;91.00;;;;;;4182567;28;20077;-76
2022/04/22 07:08:13;;;;;;;25.73;18.83;;;9.10;91.00;;;;;;4183242;28;20093;-76
2022/04/22 07:10:15;;;;;;;25.35;17.58;;;9.20;90.80;;;;;;4183128;28;20049;-77
2022/04/22 07:12:18;;;;;;;31.23;18.83;;;9.10;91.00;;;;;;4183569;28;20096;-78
2022/04/22 07:14:21;;;;;;;25.02;17.92;;;9.20;91.00;;;;;;4168393;28;20907;-77
2022/04/22 07:16:23;;;;;;;28.55;19.60;;;9.30;90.80;;;;;;4185801;28;20160;-78
2022/04/22 07:18:25;;;;;;;27.77;18.17;;;9.40;90.40;;;;;;4188852;28;20053;-77
2022/04/22 07:20:27;;;;;;;25.63;18.20;;;9.40;90.10;;;;;;4190039;28;20129;-75
2022/04/22 07:22:29;;;;;;;26.40;17.92;;;9.50;90.10;;;;;;4167621;28;20065;-76
2022/04/22 07:24:31;;;;;;;25.75;17.77;;;9.50;90.20;;;;;;4185136;28;20053;-76
2022/04/22 07:26:37;;;;;;;25.92;18.13;;;9.60;90.10;;;;;;4193776;28;20072;-76
2022/04/22 07:28:39;;;;;;;25.20;17.38;;;9.60;89.70;;;;;;4193572;28;20167;-78
2022/04/22 07:30:46;;;;;;;21.70;17.52;;;9.70;89.40;;;;;;4185761;28;20057;-77
2022/04/22 07:32:48;;;;;;;23.77;16.58;;;9.70;89.00;;;;;;4193587;28;20045;-76
2022/04/22 07:34:51;;;;;;;25.50;17.75;;;9.80;89.40;;;;;;4189361;28;20068;-77
2022/04/22 07:36:53;;;;;;;26.02;17.88;;;9.80;88.30;;;;;;4186822;28;20092;-78
2022/04/22 07:38:55;;;;;;;24.33;16.83;;;9.90;88.10;;;;;;4184117;28;21307;-78
2022/04/22 07:40:58;;;;;;;23.83;17.88;;;9.90;88.10;;;;;;4182448;28;20058;-77
2022/04/22 07:47:44;;;;;;;24.95;17.45;;;10.00;87.60;;;;;;4182955;28;20942;-77
2022/04/22 07:49:46;;;;;;;23.42;17.15;;;9.90;87.70;;;;;;4181617;28;20057;-78
2022/04/22 07:51:48;;;;;;;24.30;17.77;;;9.90;88.20;;;;;;4182546;28;20064;-78
2022/04/22 07:53:50;;;;;;;25.00;17.80;;;10.10;87.40;;;;;;4186703;28;20057;-76
2022/04/22 07:55:51;;;;;;;28.02;17.77;;;10.20;87.00;;;;;;4187415;28;21107;-78
2022/04/22 07:57:56;;;;;;;28.70;18.42;;;10.20;86.90;;;;;;4184008;28;20093;-77
2022/04/22 07:59:58;;;;;;;26.33;18.00;;;10.20;86.70;;;;;;4184517;28;21166;-78
2022/04/22 08:01:59;;;;;;;25.73;17.45;;;10.10;87.00;;;;;;4182804;28;20235;-77
2022/04/22 08:04:03;;;;;;;27.23;19.38;;;10.10;86.40;;;;;;4184712;28;20073;-77
2022/04/22 08:06:06;;;;;;;24.30;16.88;;;10.10;86.40;;;;;;4183012;28;20127;-78
2022/04/22 08:08:08;;;;;;;25.27;16.88;;;10.30;86.80;;;;;;4182993;28;20107;-77
2022/04/22 08:10:09;;;;;;;27.70;17.98;;;10.40;86.00;;;;;;4182059;28;20160;-78
2022/04/22 08:12:13;;;;;;;27.17;18.55;;;10.40;85.30;;;;;;4182529;28;20100;-77
2022/04/22 08:14:15;;;;;;;27.48;18.70;;;10.40;86.10;;;;;;4183566;28;20775;-76
2022/04/22 08:16:17;;;;;;;26.77;18.25;;;10.50;85.20;;;;;;4184995;28;20127;-77
2022/04/22 08:18:19;;;;;;;26.02;18.17;;;10.40;85.90;;;;;;4187216;28;20216;-77
2022/04/22 08:20:20;;;;;;;23.30;17.52;;;10.50;85.70;;;;;;4187112;28;20884;-77
2022/04/22 08:22:22;;;;;;;27.20;18.27;;;10.50;85.70;;;;;;4187587;28;20898;-77
2022/04/22 08:24:24;;;;;;;23.08;17.17;;;10.40;85.20;;;;;;4185073;28;20180;-78
2022/04/22 08:26:28;;;;;;;24.58;17.02;;;10.10;86.40;;;;;;4184205;28;20049;-77
2022/04/22 08:28:30;;;;;;;24.92;18.17;;;10.10;87.90;;;;;;4183875;28;20631;-76
2022/04/22 08:30:33;;;;;;;25.65;18.38;;;10.20;87.20;;;;;;4186437;28;20080;-78
2022/04/22 08:32:35;;;;;;;23.85;17.42;;;10.40;86.30;;;;;;4184972;28;20072;-76
2022/04/22 08:34:37;;;;;;;22.33;16.60;;;10.60;85.40;;;;;;4187606;28;20097;-78
2022/04/22 08:36:39;;;;;;;21.75;16.48;;;10.80;84.50;;;;;;4194099;28;20069;-78
2022/04/22 08:38:41;;;;;;;28.20;18.92;;;10.90;83.20;;;;;;4202341;28;20041;-78
2022/04/22 08:40:43;;;;;;;23.50;16.50;;;10.90;83.70;;;;;;4167515;28;20054;-78
2022/04/22 08:42:46;;;;;;;26.73;17.35;;;10.80;84.40;;;;;;4167557;28;20758;-79
2022/04/22 08:44:49;;;;;;;19.77;15.60;;;10.80;83.60;;;;;;4185655;28;20055;-78
2022/04/22 08:51:32;;;;;;;21.60;15.30;;;11.30;80.80;;;;;;4185798;28;20091;-77
2022/04/22 08:53:34;;;;;;;23.17;16.38;;;11.40;80.40;;;;;;4186676;28;20096;-78
2022/04/22 08:55:36;;;;;;;20.52;14.52;;;11.30;81.00;;;;;;4185825;28;20096;-76
2022/04/22 08:57:38;;;;;;;17.63;14.13;;;11.40;79.90;;;;;;4183827;28;21163;-76
2022/04/22 08:59:41;;;;;;;18.20;14.43;;;11.60;79.60;;;;;;4200439;28;20064;-75
2022/04/22 09:01:43;;;;;;;21.58;14.65;;;11.60;79.30;;;;;;4190418;28;20069;-77
2022/04/22 09:03:46;;;;;;;18.67;15.05;;;11.70;80.70;;;;;;4185466;28;20595;-75
2022/04/22 09:05:47;;;;;;;19.95;15.32;;;11.80;78.80;;;;;;4183305;28;20085;-78
2022/04/22 09:07:51;;;;;;;23.95;15.55;;;11.70;79.00;;;;;;4189958;28;20142;-78
2022/04/22 09:09:53;;;;;;;19.85;15.65;;;11.60;79.50;;;;;;4185342;28;20119;-79
2022/04/22 09:12:12;;;;;;;19.90;15.70;;;11.60;80.00;;;;;;4167766;28;20070;-79
2022/04/22 09:14:19;;;;;;;22.83;15.23;;;11.80;79.90;;;;;;4185944;28;20045;-77
2022/04/22 09:16:22;;;;;;;23.45;15.25;;;12.00;79.30;;;;;;4189281;28;20097;-78
2022/04/22 09:18:29;;;;;;;20.95;15.57;;;12.10;79.50;;;;;;4182581;28;20057;-78
2022/04/22 09:20:33;;;;;;;20.23;14.52;;;12.00;77.50;;;;;;4186861;28;20164;-77
2022/04/22 09:22:35;;;;;;;21.02;16.33;;;12.00;79.40;;;;;;4183355;28;20127;-76
2022/04/22 09:24:49;;;;;;;21.25;14.95;;;12.10;78.30;;;;;;4181334;28;20057;-76
2022/04/22 09:27:04;;;;;;;19.02;13.80;;;12.10;77.30;;;;;;4181967;28;20054;-76
2022/04/22 09:29:13;;;;;;;16.90;12.77;;;12.10;77.70;;;;;;4180720;28;20057;-79
2022/04/22 09:31:15;;;;;;;18.05;14.77;;;12.20;76.80;;;;;;4183555;28;20057;-79
2022/04/22 09:33:17;;;;;;;18.55;14.68;;;12.30;76.60;;;;;;4184909;28;20053;-80
2022/04/22 09:35:22;;;;;;;17.50;14.75;;;12.30;76.70;;;;;;4182846;28;20785;-79
2022/04/22 09:44:35;;;;;;;17.08;13.90;;;12.30;77.40;;;;;;4184435;28;20044;-79
2022/04/22 09:46:37;;;;;;;21.17;15.60;;;12.50;77.00;;;;;;4189256;28;20057;-78
2022/04/22 09:49:00;;;;;;;18.33;13.93;;;12.50;76.20;;;;;;4185353;28;20076;-78
2022/04/22 09:51:01;;;;;;;16.42;14.25;;;12.60;76.50;;;;;;4181290;28;20967;-77
2022/04/22 09:53:03;;;;;;;17.27;14.57;;;12.70;75.40;;;;;;4182192;28;20084;-76
2022/04/22 09:55:07;;;;;;;17.40;13.77;;;12.70;75.30;;;;;;4181208;28;20057;-76
2022/04/22 09:57:10;;;;;;;17.92;14.23;;;12.60;76.40;;;;;;4162553;28;22262;-76
2022/04/22 09:59:29;;;;;;;20.70;15.05;;;12.80;75.90;;;;;;4179721;28;20076;-78
2022/04/22 10:01:31;;;;;;;19.30;14.13;;;12.80;75.50;;;;;;4180793;28;20158;-77
2022/04/22 10:03:53;;;;;;;15.65;13.93;;;12.90;74.50;;;;;;4180809;28;20749;-78
2022/04/22 10:05:56;;;;;;;17.60;13.88;;;12.70;74.80;;;;;;4179786;28;20061;-76
2022/04/22 10:08:01;;;;;;;15.40;13.48;;;12.70;75.40;;;;;;4181030;28;20155;-76
2022/04/22 10:10:04;;;;;;;17.45;14.27;;;12.80;75.50;;;;;;4174912;28;20061;-78
2022/04/22 10:12:10;;;;;;;17.30;13.80;;;12.80;75.20;;;;;;4178328;28;21137;-77
2022/04/22 10:14:12;;;;;;;16.83;14.32;;;12.90;74.50;;;;;;4177467;28;20057;-77
2022/04/22 10:16:14;;;;;;;16.73;14.68;;;13.00;75.30;;;;;;4180077;28;20062;-77
2022/04/22 10:18:17;;;;;;;17.30;15.23;;;13.20;74.70;;;;;;4179408;28;20053;-77
2022/04/22 10:20:20;;;;;;;19.92;15.13;;;13.30;74.40;;;;;;4178885;28;20880;-76
2022/04/22 10:22:22;;;;;;;16.80;14.10;;;13.30;73.70;;;;;;4178256;28;20104;-76
2022/04/22 10:24:25;;;;;;;15.80;13.52;;;13.20;74.40;;;;;;4178443;28;20639;-76
2022/04/22 10:26:27;;;;;;;15.40;12.80;;;13.20;73.50;;;;;;4179127;28;20069;-77
2022/04/22 10:28:31;;;;;;;16.42;12.82;;;13.20;74.40;;;;;;4178270;28;20145;-78
2022/04/22 10:30:34;;;;;;;18.70;13.40;;;13.40;74.60;;;;;;4179623;28;20131;-77
2022/04/22 10:32:39;;;;;;;18.38;13.57;;;13.60;73.70;;;;;;4178944;28;20857;-78
2022/04/22 10:34:43;;;;;;;19.98;14.73;;;13.60;72.70;;;;;;4166073;28;20136;-79
2022/04/22 10:36:46;;;;;;;18.25;14.65;;;13.60;72.40;;;;;;4181627;28;20068;-78
2022/04/22 10:38:49;;;;;;;16.88;13.52;;;13.40;73.00;;;;;;4183096;28;20085;-80
2022/04/22 10:40:51;;;;;;;18.02;13.63;;;13.40;74.20;;;;;;4181649;28;20816;-78
2022/04/22 10:42:58;;;;;;;18.35;14.07;;;13.60;74.10;;;;;;4182451;28;20089;-78
2022/04/22 10:47:45;;;;;;;14.75;12.77;;;13.70;72.30;;;;;;4181731;28;20053;-77
2022/04/22 10:49:47;;;;;;;16.70;13.93;;;13.70;73.10;;;;;;4179942;28;20058;-77
2022/04/22 10:52:19;;;;;;;16.75;13.95;;;13.80;73.70;;;;;;4183756;28;20900;-77
2022/04/22 10:54:41;;;;;;;17.98;13.40;;;14.00;71.70;;;;;;4184092;28;20053;-77
2022/04/22 10:56:44;;;;;;;18.67;13.10;;;14.00;71.80;;;;;;4184951;28;20576;-78
2022/04/22 10:58:46;;;;;;;15.60;13.18;;;14.10;71.70;;;;;;4184636;28;20172;-77
2022/04/22 11:00:55;;;;;;;17.00;12.98;;;14.10;71.10;;;;;;4183398;28;20061;-77
2022/04/22 11:03:10;;;;;;;21.00;13.77;;;14.00;71.80;;;;;;4182697;28;20066;-77
2022/04/22 11:05:18;;;;;;;16.02;13.13;;;14.00;71.20;;;;;;4181767;28;20096;-76
2022/04/22 11:07:57;;;;;;;16.00;12.10;;;14.20;70.30;;;;;;4183259;28;20061;-77
2022/04/22 11:10:03;;;;;;;15.38;11.80;;;14.10;70.90;;;;;;4184468;28;20152;-77
2022/04/22 11:12:05;;;;;;;16.45;12.02;;;14.30;71.80;;;;;;4185814;28;20067;-78
2022/04/22 11:14:24;;;;;;;17.02;13.30;;;14.40;69.80;;;;;;4185067;28;20092;-77
2022/04/22 11:16:27;;;;;;;15.13;13.45;;;14.60;69.40;;;;;;4180685;28;20176;-77
2022/04/22 11:18:30;;;;;;;12.95;11.60;;;14.60;70.20;;;;;;4181506;28;20058;-78
2022/04/22 11:20:38;;;;;;;16.80;13.27;;;14.60;69.10;;;;;;4185579;28;20152;-77
2022/04/22 11:22:58;;;;;;;14.27;12.00;;;14.50;68.80;;;;;;4179409;28;20685;-75
2022/04/22 11:25:00;;;;;;;14.05;12.32;;;14.40;68.80;;;;;;4180910;28;20068;-79
2022/04/22 11:27:11;;;;;;;15.05;12.35;;;14.40;68.90;;;;;;4183512;28;20176;-76
2022/04/22 11:29:14;;;;;;;13.82;11.77;;;14.40;69.00;;;;;;4182091;28;20131;-76
2022/04/22 11:31:18;;;;;;;16.83;12.85;;;14.50;69.50;;;;;;4163395;28;20982;-77
2022/04/22 11:33:24;;;;;;;15.90;11.40;;;14.50;69.40;;;;;;4181713;28;20063;-77